Time;durP1;ratioP1;P1;durP2;ratioP2;P2;SDS_P1;SDS_P2;PMS_P1;PMS_P2;Temp;Humidity;BMP_temperature;BMP_pressure;BME280_temperature;BME280_humidity;BME280_pressure;Samples;Min_cycle;Max_cycle;Signal;HPM_P1;HPM_P2
2024/04/16 00:00:35;;;;;;;4.82;1.20;;;4.50;99.90;;;;;;5476005;26;20478;-49
2024/04/16 00:03:00;;;;;;;4.85;1.50;;;4.60;99.90;;;;;;5478704;26;19998;-50
2024/04/16 00:05:26;;;;;;;3.65;1.80;;;4.60;99.90;;;;;;5467089;26;20005;-49
2024/04/16 00:07:52;;;;;;;2.35;1.52;;;4.60;99.90;;;;;;5475774;26;20355;-49
2024/04/16 00:10:17;;;;;;;3.28;1.45;;;4.60;99.90;;;;;;5475667;26;20002;-50
2024/04/16 00:12:43;;;;;;;3.00;1.48;;;4.60;99.90;;;;;;5477663;26;20029;-52
2024/04/16 00:15:09;;;;;;;2.60;1.42;;;4.60;99.90;;;;;;5465999;26;19994;-49
2024/04/16 00:17:34;;;;;;;2.97;1.42;;;4.70;99.90;;;;;;5471247;26;19998;-48
2024/04/16 00:20:00;;;;;;;2.83;1.27;;;4.70;99.90;;;;;;5466706;26;19994;-49
2024/04/16 00:22:26;;;;;;;3.42;1.17;;;4.70;99.90;;;;;;5469464;26;20051;-50
2024/04/16 00:24:51;;;;;;;2.33;1.60;;;4.70;99.90;;;;;;5473171;26;19998;-51
2024/04/16 00:27:17;;;;;;;6.55;1.42;;;4.70;99.90;;;;;;5474704;26;20068;-49
2024/04/16 00:29:43;;;;;;;5.82;1.88;;;4.70;99.90;;;;;;5477290;26;20450;-51
2024/04/16 00:32:10;;;;;;;1.70;1.40;;;4.70;99.90;;;;;;5464335;26;19998;-51
2024/04/16 00:34:35;;;;;;;2.75;1.58;;;4.70;99.90;;;;;;5474828;26;20017;-50
2024/04/16 00:37:01;;;;;;;4.95;1.77;;;4.70;99.90;;;;;;5470379;26;20006;-52
2024/04/16 00:39:27;;;;;;;3.92;1.70;;;4.70;99.90;;;;;;5477443;26;20012;-49
2024/04/16 00:41:52;;;;;;;4.53;2.08;;;4.70;99.90;;;;;;5479513;26;21100;-49
2024/04/16 00:44:20;;;;;;;4.10;1.60;;;4.70;99.90;;;;;;5469269;26;20485;-51
2024/04/16 00:46:46;;;;;;;1.80;1.60;;;4.70;99.90;;;;;;5474653;26;20330;-51
2024/04/16 00:49:11;;;;;;;2.72;1.70;;;4.70;99.90;;;;;;5469544;26;19998;-53
2024/04/16 00:51:37;;;;;;;2.53;1.48;;;4.70;99.90;;;;;;5474629;26;19999;-51
2024/04/16 00:54:03;;;;;;;3.47;1.65;;;4.70;99.90;;;;;;5471637;26;20071;-53
2024/04/16 00:56:29;;;;;;;6.18;1.70;;;4.70;99.90;;;;;;5481272;26;20033;-54
2024/04/16 00:58:55;;;;;;;1.83;1.73;;;4.70;99.90;;;;;;5479932;26;19998;-50
2024/04/16 01:01:21;;;;;;;5.85;1.65;;;4.70;99.90;;;;;;5469410;26;20058;-52
2024/04/16 01:03:46;;;;;;;2.92;1.45;;;4.60;99.90;;;;;;5471545;26;20065;-49
2024/04/16 01:06:12;;;;;;;2.00;1.73;;;4.60;99.90;;;;;;5474728;26;20002;-52
2024/04/16 01:08:38;;;;;;;3.22;1.83;;;4.60;99.90;;;;;;5475586;26;20020;-55
2024/04/16 01:11:03;;;;;;;2.88;2.08;;;4.60;99.90;;;;;;5473782;26;19997;-55
2024/04/16 01:13:29;;;;;;;5.40;1.90;;;4.60;99.90;;;;;;5473533;26;19994;-52
2024/04/16 01:15:54;;;;;;;2.42;2.22;;;4.60;99.90;;;;;;5477598;26;20129;-49
2024/04/16 01:18:20;;;;;;;4.07;1.98;;;4.60;99.90;;;;;;5471922;26;20016;-53
2024/04/16 01:20:45;;;;;;;2.20;1.95;;;4.60;99.90;;;;;;5476964;26;20436;-51
2024/04/16 01:23:11;;;;;;;4.68;2.67;;;4.60;99.90;;;;;;5479585;26;20009;-50
2024/04/16 01:25:37;;;;;;;4.18;2.40;;;4.60;99.90;;;;;;5444050;26;20100;-54
2024/04/16 01:28:03;;;;;;;2.95;2.22;;;4.60;99.90;;;;;;5471843;26;19991;-53
2024/04/16 01:30:28;;;;;;;4.13;2.42;;;4.70;99.90;;;;;;5481602;26;20017;-52
2024/04/16 01:32:54;;;;;;;3.45;2.40;;;4.70;99.90;;;;;;5478733;26;20449;-50
2024/04/16 01:35:19;;;;;;;3.05;2.67;;;4.70;99.90;;;;;;5478273;26;20021;-49
2024/04/16 01:37:45;;;;;;;4.40;2.15;;;4.70;99.90;;;;;;5476291;26;20721;-48
2024/04/16 01:40:12;;;;;;;5.47;2.58;;;4.70;99.90;;;;;;5478205;26;20454;-53
2024/04/16 01:42:37;;;;;;;2.90;2.60;;;4.70;99.90;;;;;;5475414;26;20513;-50
2024/04/16 01:45:03;;;;;;;8.40;3.00;;;4.70;99.90;;;;;;5477493;26;19994;-52
2024/04/16 01:47:28;;;;;;;4.22;2.92;;;4.70;99.90;;;;;;5477967;26;19998;-52
2024/04/16 01:49:54;;;;;;;3.35;3.05;;;4.70;99.90;;;;;;5477238;26;20032;-52
2024/04/16 01:52:19;;;;;;;4.32;3.45;;;4.60;99.90;;;;;;5469564;26;19994;-49
2024/04/16 01:54:45;;;;;;;5.47;3.58;;;4.60;99.90;;;;;;5475852;26;19998;-53
2024/04/16 01:57:11;;;;;;;6.20;3.55;;;4.70;99.90;;;;;;5474682;26;19999;-53
2024/04/16 01:59:36;;;;;;;7.20;3.55;;;4.60;99.90;;;;;;5481390;26;19998;-51
2024/04/16 02:02:02;;;;;;;6.65;3.35;;;4.60;99.90;;;;;;5478894;26;19993;-53
2024/04/16 02:04:29;;;;;;;5.13;3.67;;;4.60;99.90;;;;;;5477698;26;20078;-50
2024/04/16 02:06:54;;;;;;;5.93;3.42;;;4.50;99.90;;;;;;5470865;26;20017;-55
2024/04/16 02:09:20;;;;;;;5.32;3.55;;;4.50;99.90;;;;;;5478071;26;20006;-51
2024/04/16 02:11:45;;;;;;;6.35;3.67;;;4.40;99.90;;;;;;5472733;26;20013;-50
2024/04/16 02:14:11;;;;;;;6.20;4.18;;;4.40;99.90;;;;;;5474501;26;20002;-52
2024/04/16 02:16:36;;;;;;;3.72;3.17;;;4.40;99.90;;;;;;5473392;26;19990;-51
2024/04/16 02:19:02;;;;;;;5.03;3.30;;;4.40;99.90;;;;;;5477597;26;20002;-50
2024/04/16 02:21:27;;;;;;;5.70;3.80;;;4.40;99.90;;;;;;5477965;26;19994;-53
2024/04/16 02:23:53;;;;;;;4.10;3.70;;;4.40;99.90;;;;;;5473506;26;20016;-52
2024/04/16 02:26:19;;;;;;;6.97;3.33;;;4.40;99.90;;;;;;5478533;26;20016;-49
2024/04/16 02:28:44;;;;;;;4.60;3.50;;;4.40;99.90;;;;;;5476836;26;20006;-49
2024/04/16 02:31:10;;;;;;;4.47;3.38;;;4.40;99.90;;;;;;5474524;26;19990;-51
2024/04/16 02:33:35;;;;;;;4.35;3.33;;;4.40;99.90;;;;;;5477815;26;20038;-53
2024/04/16 02:36:02;;;;;;;5.45;3.47;;;4.50;99.90;;;;;;5475299;26;19994;-53
2024/04/16 02:38:28;;;;;;;8.00;3.45;;;4.50;99.90;;;;;;5477370;26;19998;-49
2024/04/16 02:40:54;;;;;;;4.68;3.90;;;4.50;99.90;;;;;;5474218;26;20104;-50
2024/04/16 02:43:19;;;;;;;4.43;3.67;;;4.40;99.90;;;;;;5469551;26;20368;-54
2024/04/16 02:45:45;;;;;;;7.10;4.53;;;4.50;99.90;;;;;;5468652;26;19994;-52
2024/04/16 02:48:10;;;;;;;6.43;3.55;;;4.50;99.90;;;;;;5475638;26;20593;-51
2024/04/16 02:50:36;;;;;;;5.75;4.38;;;4.50;99.90;;;;;;5447986;26;19994;-53
2024/04/16 02:53:01;;;;;;;7.07;4.15;;;4.50;99.90;;;;;;5477222;26;20002;-52
2024/04/16 02:55:27;;;;;;;5.47;4.22;;;4.50;99.90;;;;;;5481763;26;20377;-50
2024/04/16 02:57:53;;;;;;;4.78;3.90;;;4.60;99.90;;;;;;5473453;26;20410;-50
2024/04/16 03:00:18;;;;;;;6.85;4.63;;;4.60;99.90;;;;;;5468035;26;20009;-51
2024/04/16 03:02:44;;;;;;;6.82;4.05;;;4.60;99.90;;;;;;5477552;26;20030;-55
2024/04/16 03:05:10;;;;;;;7.35;4.78;;;4.60;99.90;;;;;;5466321;26;19994;-53
2024/04/16 03:07:36;;;;;;;8.15;5.15;;;4.60;99.90;;;;;;5474922;26;20002;-51
2024/04/16 03:10:01;;;;;;;5.53;3.83;;;4.60;99.90;;;;;;5473880;26;19997;-49
2024/04/16 03:12:27;;;;;;;6.30;4.93;;;4.60;99.90;;;;;;5471375;26;20074;-49
2024/04/16 03:14:53;;;;;;;5.22;4.43;;;4.60;99.90;;;;;;5474652;26;20357;-53
2024/04/16 03:17:19;;;;;;;5.50;4.85;;;4.60;99.90;;;;;;5472239;26;19998;-55
2024/04/16 03:19:45;;;;;;;9.40;5.10;;;4.60;99.90;;;;;;5478273;26;19994;-50
2024/04/16 03:22:10;;;;;;;6.05;4.72;;;4.60;99.90;;;;;;5475420;26;20478;-54
2024/04/16 03:24:36;;;;;;;6.03;4.80;;;4.60;99.90;;;;;;5478519;26;20442;-49
2024/04/16 03:27:02;;;;;;;8.73;5.07;;;4.60;99.90;;;;;;5472325;26;19998;-53
2024/04/16 03:29:27;;;;;;;7.53;4.82;;;4.60;99.90;;;;;;5476159;26;20478;-51
2024/04/16 03:31:53;;;;;;;7.53;4.47;;;4.50;99.90;;;;;;5469125;26;20006;-52
2024/04/16 03:34:18;;;;;;;6.20;5.30;;;4.50;99.90;;;;;;5483099;26;19994;-54
2024/04/16 03:36:44;;;;;;;8.48;4.80;;;4.50;99.90;;;;;;5475435;26;20061;-53
2024/04/16 03:39:09;;;;;;;5.00;3.97;;;4.60;99.90;;;;;;5446058;26;20009;-51
2024/04/16 03:41:35;;;;;;;6.05;4.32;;;4.60;99.90;;;;;;5472494;26;20630;-50
2024/04/16 03:44:01;;;;;;;9.50;4.80;;;4.60;99.90;;;;;;5478232;26;20026;-51
2024/04/16 03:46:26;;;;;;;7.82;5.45;;;4.60;99.90;;;;;;5478156;26;20481;-49
2024/04/16 03:48:52;;;;;;;7.72;5.70;;;4.60;99.90;;;;;;5469872;26;19999;-52
2024/04/16 03:51:18;;;;;;;9.70;5.28;;;4.60;99.90;;;;;;5469074;26;20043;-53
2024/04/16 03:53:43;;;;;;;7.38;5.25;;;4.70;99.90;;;;;;5443629;26;20088;-53
2024/04/16 03:56:09;;;;;;;7.97;5.18;;;4.70;99.90;;;;;;5476589;26;20002;-50
2024/04/16 03:58:43;;;;;;;8.68;5.18;;;4.70;99.90;;;;;;5467688;26;20124;-53
2024/04/16 04:01:09;;;;;;;5.70;4.75;;;4.70;99.90;;;;;;5475549;26;20013;-51
2024/04/16 04:03:34;;;;;;;5.57;4.47;;;4.80;99.90;;;;;;5442085;26;19991;-50
2024/04/16 04:06:00;;;;;;;7.25;4.30;;;4.80;99.90;;;;;;5468992;26;20014;-49
2024/04/16 04:08:26;;;;;;;5.18;4.28;;;4.80;99.90;;;;;;5469659;26;19994;-50
2024/04/16 04:10:52;;;;;;;5.30;3.90;;;4.80;99.90;;;;;;5476317;26;19994;-53
2024/04/16 04:13:18;;;;;;;5.53;4.18;;;4.80;99.90;;;;;;5470132;26;20071;-52
2024/04/16 04:15:44;;;;;;;6.25;3.20;;;4.80;99.90;;;;;;5469302;26;20002;-50
2024/04/16 04:18:09;;;;;;;4.07;3.33;;;4.80;99.90;;;;;;5471822;26;20002;-49
2024/04/16 04:20:38;;;;;;;4.78;3.55;;;4.80;99.90;;;;;;5470842;26;20013;-54
2024/04/16 04:23:03;;;;;;;4.85;2.40;;;4.80;99.90;;;;;;5470379;26;20009;-49
2024/04/16 04:25:29;;;;;;;3.88;2.85;;;4.80;99.90;;;;;;5473954;26;20047;-50
2024/04/16 04:27:55;;;;;;;3.55;2.00;;;4.80;99.90;;;;;;5475805;26;19990;-52
2024/04/16 04:30:20;;;;;;;3.22;1.98;;;4.80;99.90;;;;;;5475633;26;20012;-53
2024/04/16 04:32:52;;;;;;;3.33;1.98;;;4.80;99.90;;;;;;5472907;26;19998;-50
2024/04/16 04:35:17;;;;;;;4.28;2.08;;;4.80;99.90;;;;;;5417754;26;20014;-54
2024/04/16 04:37:43;;;;;;;5.22;2.13;;;4.80;99.90;;;;;;5475770;26;19994;-52
2024/04/16 04:40:09;;;;;;;2.22;1.75;;;4.80;99.90;;;;;;5472490;26;20742;-53
2024/04/16 04:42:35;;;;;;;2.83;1.42;;;4.80;99.90;;;;;;5474209;26;20006;-54
2024/04/16 04:45:00;;;;;;;1.42;1.30;;;4.80;99.90;;;;;;5472778;26;20377;-52
2024/04/16 04:47:26;;;;;;;2.85;1.52;;;4.80;99.90;;;;;;5481783;26;21009;-52
2024/04/16 04:49:51;;;;;;;2.35;1.52;;;4.80;99.90;;;;;;5468846;26;20013;-50
2024/04/16 04:52:17;;;;;;;1.50;1.20;;;4.90;99.90;;;;;;5475384;26;20016;-52
2024/04/16 04:54:42;;;;;;;1.20;1.10;;;4.90;99.90;;;;;;5466476;26;19998;-50
2024/04/16 04:57:08;;;;;;;1.33;1.23;;;4.90;99.90;;;;;;5475018;26;20002;-54
2024/04/16 04:59:34;;;;;;;5.38;1.90;;;4.90;99.90;;;;;;5474874;26;19994;-54
2024/04/16 05:01:59;;;;;;;5.93;1.88;;;4.90;99.90;;;;;;5473085;26;19998;-51
2024/04/16 05:04:25;;;;;;;2.15;1.25;;;4.80;99.90;;;;;;5472301;26;20013;-49
2024/04/16 05:06:50;;;;;;;1.58;0.98;;;4.90;99.90;;;;;;5470136;26;20013;-51
2024/04/16 05:09:16;;;;;;;2.15;1.17;;;4.90;99.90;;;;;;5473503;26;19994;-49
2024/04/16 05:11:41;;;;;;;2.53;1.00;;;4.90;99.90;;;;;;5473964;26;20040;-50
2024/04/16 05:14:09;;;;;;;3.42;1.67;;;4.90;99.90;;;;;;5468381;26;20002;-53
2024/04/16 05:16:35;;;;;;;1.27;1.17;;;4.90;99.90;;;;;;5474562;26;19999;-52
2024/04/16 05:19:02;;;;;;;1.20;1.10;;;4.90;99.90;;;;;;5474811;26;20455;-51
2024/04/16 05:21:27;;;;;;;3.05;1.17;;;5.00;99.90;;;;;;5467494;26;20796;-50
2024/04/16 05:23:53;;;;;;;2.40;1.10;;;5.00;99.90;;;;;;5472576;26;19995;-49
2024/04/16 05:26:19;;;;;;;3.38;1.15;;;5.00;99.90;;;;;;5471640;26;19994;-51
2024/04/16 05:28:44;;;;;;;1.58;1.10;;;5.10;99.90;;;;;;5463996;26;19990;-51
2024/04/16 05:31:10;;;;;;;1.40;1.05;;;5.10;99.90;;;;;;5467480;26;20350;-49
2024/04/16 05:33:35;;;;;;;1.35;1.00;;;5.10;99.90;;;;;;5475741;26;20001;-52
2024/04/16 05:36:01;;;;;;;0.60;0.52;;;5.10;99.90;;;;;;5475002;26;20022;-49
2024/04/16 05:38:26;;;;;;;1.42;0.98;;;5.10;99.90;;;;;;5474243;26;19998;-52
2024/04/16 05:40:52;;;;;;;2.50;0.70;;;5.20;99.90;;;;;;5470237;26;19995;-53
2024/04/16 05:43:18;;;;;;;1.48;0.90;;;5.20;99.90;;;;;;5474329;26;19994;-52
2024/04/16 05:45:43;;;;;;;1.30;1.20;;;5.20;99.90;;;;;;5463061;26;19999;-51
2024/04/16 05:48:09;;;;;;;0.95;0.90;;;5.20;99.90;;;;;;5459409;26;20009;-53
2024/04/16 05:50:34;;;;;;;3.22;1.10;;;5.30;99.90;;;;;;5473001;26;20017;-49
2024/04/16 05:53:00;;;;;;;1.02;0.80;;;5.30;99.90;;;;;;5448326;26;19999;-49
2024/04/16 05:55:26;;;;;;;1.52;0.98;;;5.20;99.90;;;;;;5467535;26;20002;-51
2024/04/16 05:57:51;;;;;;;0.77;0.77;;;5.20;99.90;;;;;;5472749;26;20005;-52
2024/04/16 06:00:17;;;;;;;2.75;0.80;;;5.30;99.90;;;;;;5473528;26;20010;-53
2024/04/16 06:02:43;;;;;;;1.75;0.85;;;5.30;99.90;;;;;;5484233;26;20025;-49
2024/04/16 06:05:08;;;;;;;0.82;0.82;;;5.30;99.90;;;;;;5473063;26;20010;-50
2024/04/16 06:07:34;;;;;;;3.13;0.80;;;5.40;99.90;;;;;;5436975;26;19994;-51
2024/04/16 06:09:59;;;;;;;1.25;0.90;;;5.40;99.90;;;;;;5470775;26;19999;-49
2024/04/16 06:12:25;;;;;;;3.10;1.00;;;5.50;99.90;;;;;;5472780;26;19990;-52
2024/04/16 06:14:50;;;;;;;0.50;0.50;;;5.50;99.90;;;;;;5467944;26;20047;-52
2024/04/16 06:17:16;;;;;;;2.60;0.82;;;5.50;99.90;;;;;;5476473;26;20074;-52
2024/04/16 06:19:44;;;;;;;2.97;0.57;;;5.50;99.90;;;;;;5473313;26;20014;-50
2024/04/16 06:22:10;;;;;;;0.52;0.52;;;5.60;99.90;;;;;;5466917;26;20001;-50
2024/04/16 06:24:35;;;;;;;6.22;1.17;;;5.70;99.90;;;;;;5469889;26;20413;-53
2024/04/16 06:27:01;;;;;;;1.95;0.88;;;5.70;99.90;;;;;;5473628;26;19998;-52
2024/04/16 06:29:27;;;;;;;2.47;1.20;;;5.80;99.90;;;;;;5447576;26;19998;-49
2024/04/16 06:31:52;;;;;;;2.55;0.90;;;5.80;99.90;;;;;;5477541;26;20358;-50
2024/04/16 06:34:18;;;;;;;2.50;0.95;;;5.80;99.90;;;;;;5477737;26;20002;-48
2024/04/16 06:36:44;;;;;;;1.13;1.02;;;5.80;99.90;;;;;;5482751;26;20022;-53
2024/04/16 06:39:09;;;;;;;1.85;1.40;;;5.80;99.90;;;;;;5478566;26;20006;-52
2024/04/16 06:41:35;;;;;;;3.03;1.70;;;5.80;99.90;;;;;;5468449;26;20040;-50
2024/04/16 06:44:00;;;;;;;2.13;1.77;;;5.90;99.90;;;;;;5477656;26;20010;-52
2024/04/16 06:46:26;;;;;;;3.10;2.13;;;5.90;99.90;;;;;;5471399;26;20010;-53
2024/04/16 06:48:51;;;;;;;6.63;1.98;;;5.90;99.90;;;;;;5476029;26;20088;-52
2024/04/16 06:51:17;;;;;;;2.90;1.60;;;5.90;99.90;;;;;;5474240;26;20026;-49
2024/04/16 06:53:43;;;;;;;3.40;2.08;;;5.90;99.90;;;;;;5477573;26;20078;-53
2024/04/16 06:56:08;;;;;;;3.50;2.80;;;6.00;99.90;;;;;;5469584;26;19998;-48
2024/04/16 06:58:34;;;;;;;3.20;2.83;;;6.10;99.90;;;;;;5476045;26;19994;-52
2024/04/16 07:01:00;;;;;;;4.25;2.90;;;6.10;99.90;;;;;;5478225;26;19998;-50
2024/04/16 07:03:26;;;;;;;3.80;3.22;;;6.10;99.90;;;;;;5474712;26;20454;-49
2024/04/16 07:05:52;;;;;;;4.13;3.42;;;6.20;99.90;;;;;;5477214;26;20008;-54
2024/04/16 07:08:18;;;;;;;4.72;3.40;;;6.30;99.90;;;;;;5474900;26;20002;-52
2024/04/16 07:10:50;;;;;;;3.22;2.90;;;6.30;99.90;;;;;;5472317;26;20001;-55
2024/04/16 07:13:16;;;;;;;3.20;2.90;;;6.40;99.90;;;;;;5479083;26;20009;-49
2024/04/16 07:15:41;;;;;;;6.22;2.53;;;6.50;99.90;;;;;;5471888;26;20013;-51
2024/04/16 07:18:07;;;;;;;3.05;2.58;;;6.50;99.90;;;;;;5472933;26;19990;-51
2024/04/16 07:20:32;;;;;;;4.57;2.67;;;6.60;99.90;;;;;;5470258;26;19995;-53
2024/04/16 07:22:58;;;;;;;2.65;2.42;;;6.80;99.90;;;;;;5444061;26;20009;-50
2024/04/16 07:25:24;;;;;;;2.53;2.33;;;6.90;99.90;;;;;;5466490;26;20006;-49
2024/04/16 07:27:49;;;;;;;5.03;2.40;;;7.00;99.90;;;;;;5469841;26;20074;-50
2024/04/16 07:30:16;;;;;;;2.92;2.17;;;7.10;99.90;;;;;;5474635;26;20002;-52
2024/04/16 07:32:41;;;;;;;3.22;2.35;;;7.10;99.90;;;;;;5473755;26;20032;-51
2024/04/16 07:35:07;;;;;;;4.10;2.50;;;7.10;99.90;;;;;;5479472;26;20002;-54
2024/04/16 07:37:32;;;;;;;5.57;2.65;;;7.20;99.90;;;;;;5476742;26;19998;-50
2024/04/16 07:39:58;;;;;;;4.85;2.63;;;7.30;99.90;;;;;;5474065;26;20338;-51
2024/04/16 07:42:23;;;;;;;3.95;2.38;;;7.30;99.90;;;;;;5468525;26;20410;-50
2024/04/16 07:44:49;;;;;;;6.10;2.78;;;7.30;99.90;;;;;;5474810;26;20345;-49
2024/04/16 07:47:15;;;;;;;4.13;2.10;;;7.30;99.90;;;;;;5460751;26;20435;-52
2024/04/16 07:49:40;;;;;;;2.40;2.20;;;7.30;99.90;;;;;;5477942;26;20375;-49
2024/04/16 07:52:06;;;;;;;4.40;2.58;;;7.30;99.90;;;;;;5469633;26;20073;-53
2024/04/16 07:54:31;;;;;;;3.08;2.08;;;7.30;99.90;;;;;;5476113;26;19995;-53
2024/04/16 07:56:57;;;;;;;2.63;2.20;;;7.40;99.90;;;;;;5471220;26;20623;-54
2024/04/16 07:59:22;;;;;;;2.25;2.05;;;7.50;99.90;;;;;;5474242;26;20025;-53
2024/04/16 08:01:49;;;;;;;2.30;2.10;;;7.50;99.90;;;;;;5474246;26;20018;-52
2024/04/16 08:04:14;;;;;;;2.50;1.92;;;7.60;99.90;;;;;;5467926;26;20411;-51
2024/04/16 08:06:40;;;;;;;2.65;1.73;;;7.60;99.90;;;;;;5466103;26;20013;-57
2024/04/16 08:09:05;;;;;;;2.30;1.83;;;7.60;99.90;;;;;;5472953;26;20013;-50
2024/04/16 08:11:31;;;;;;;3.35;2.08;;;7.70;99.90;;;;;;5472819;26;20004;-51
2024/04/16 08:13:56;;;;;;;2.00;1.20;;;7.80;99.90;;;;;;5473655;26;19998;-53
2024/04/16 08:16:22;;;;;;;5.53;2.08;;;8.00;99.90;;;;;;5472323;26;20016;-54
2024/04/16 08:18:48;;;;;;;3.67;1.40;;;8.00;99.90;;;;;;5467635;26;20006;-51
2024/04/16 08:21:14;;;;;;;3.72;2.03;;;8.00;99.90;;;;;;5473840;26;20001;-50
2024/04/16 08:23:39;;;;;;;2.47;1.77;;;8.00;99.90;;;;;;5470692;26;19994;-52
2024/04/16 08:26:06;;;;;;;2.10;1.30;;;7.90;99.90;;;;;;5469851;26;20085;-51
2024/04/16 08:28:32;;;;;;;2.22;1.88;;;8.00;99.90;;;;;;5474174;26;19998;-49
2024/04/16 08:30:58;;;;;;;2.70;2.20;;;8.20;99.90;;;;;;5464550;26;20008;-54
2024/04/16 08:33:24;;;;;;;3.97;2.60;;;8.30;99.90;;;;;;5475069;26;20001;-49
2024/04/16 08:35:51;;;;;;;2.30;1.52;;;8.30;99.90;;;;;;5471438;26;20494;-52
2024/04/16 08:38:17;;;;;;;1.70;1.60;;;8.30;99.90;;;;;;5472935;26;19998;-54
2024/04/16 08:40:45;;;;;;;5.18;2.05;;;8.30;99.90;;;;;;5476482;26;20126;-49
2024/04/16 08:43:11;;;;;;;2.20;1.50;;;8.30;99.90;;;;;;5467713;26;20477;-52
2024/04/16 08:45:37;;;;;;;4.30;1.65;;;8.30;99.90;;;;;;5473611;26;19990;-49
2024/04/16 08:48:05;;;;;;;5.82;2.42;;;8.40;99.90;;;;;;5472148;26;19995;-54
2024/04/16 08:50:33;;;;;;;1.80;1.35;;;8.50;99.90;;;;;;5478149;26;19994;-53
2024/04/16 08:53:00;;;;;;;6.53;4.13;;;8.50;99.90;;;;;;5465989;26;20003;-52
2024/04/16 08:55:30;;;;;;;5.00;2.65;;;8.60;99.90;;;;;;5472613;26;19994;-52
2024/04/16 08:57:55;;;;;;;6.60;2.22;;;8.70;99.90;;;;;;5469282;26;20020;-55
2024/04/16 09:00:22;;;;;;;2.58;2.20;;;8.80;99.90;;;;;;5470907;26;20002;-54
2024/04/16 09:02:50;;;;;;;6.00;1.65;;;8.90;99.90;;;;;;5468207;26;20553;-54
2024/04/16 09:05:16;;;;;;;4.95;1.30;;;8.80;99.90;;;;;;5466221;26;20002;-54
2024/04/16 09:07:42;;;;;;;2.45;1.60;;;8.80;99.90;;;;;;5477060;26;20013;-50
2024/04/16 09:10:22;;;;;;;33.10;9.85;;;8.70;99.90;;;;;;5476843;26;19994;-49
2024/04/16 09:12:48;;;;;;;20.52;7.05;;;8.60;99.90;;;;;;5473199;26;20070;-49
2024/04/16 09:15:15;;;;;;;9.43;2.63;;;8.50;99.90;;;;;;5471068;26;21007;-53
2024/04/16 09:17:51;;;;;;;12.10;4.75;;;8.50;99.90;;;;;;5461099;26;20014;-52
2024/04/16 09:20:20;;;;;;;;;;;8.50;99.90;;;;;;5474153;26;19995;-49
2024/04/16 09:22:48;;;;;;;2.28;1.60;;;8.50;99.90;;;;;;5468068;26;19924;-52
2024/04/16 09:25:14;;;;;;;2.25;1.25;;;8.50;99.90;;;;;;5442222;26;20718;-49
2024/04/16 09:27:40;;;;;;;4.15;1.77;;;8.60;99.90;;;;;;5446325;26;20002;-54
2024/04/16 09:30:12;;;;;;;3.88;1.92;;;8.70;99.90;;;;;;5468361;26;20388;-49
2024/04/16 09:32:38;;;;;;;4.53;1.80;;;8.80;99.90;;;;;;5442579;26;19994;-49
2024/04/16 09:35:05;;;;;;;2.50;1.33;;;8.90;99.90;;;;;;5474901;26;20551;-50
2024/04/16 09:37:31;;;;;;;1.77;1.33;;;9.00;99.90;;;;;;5471567;26;19998;-54
2024/04/16 09:39:59;;;;;;;3.45;1.50;;;9.20;99.90;;;;;;5475774;26;20049;-52
2024/04/16 09:42:26;;;;;;;1.42;1.33;;;9.30;99.90;;;;;;5473545;26;20446;-54
2024/04/16 09:44:52;;;;;;;2.40;1.30;;;9.40;99.90;;;;;;5475165;26;20010;-54
2024/04/16 09:47:18;;;;;;;1.35;1.10;;;9.40;99.90;;;;;;5480374;26;20004;-54
2024/04/16 09:49:44;;;;;;;2.88;1.20;;;9.40;99.90;;;;;;5440457;26;20985;-52
2024/04/16 09:52:15;;;;;;;2.97;1.25;;;9.30;99.90;;;;;;5470347;26;20016;-51
2024/04/16 09:54:42;;;;;;;4.72;1.17;;;9.30;99.90;;;;;;5470311;26;20448;-53
2024/04/16 09:57:10;;;;;;;3.65;1.33;;;9.20;99.90;;;;;;5482579;26;20496;-52
2024/04/16 09:59:37;;;;;;;1.40;1.13;;;9.00;99.90;;;;;;5474758;26;19995;-50
2024/04/16 10:02:03;;;;;;;1.48;1.38;;;8.90;99.90;;;;;;5479852;26;20480;-52
2024/04/16 10:04:30;;;;;;;4.03;1.50;;;8.90;99.90;;;;;;5474168;26;19994;-52
2024/04/16 10:06:56;;;;;;;1.60;1.40;;;8.90;99.90;;;;;;5468994;26;20000;-52
2024/04/16 10:09:23;;;;;;;2.22;1.35;;;9.00;99.90;;;;;;5470983;26;19994;-51
2024/04/16 10:11:49;;;;;;;1.00;0.90;;;9.00;99.90;;;;;;5473371;26;20018;-52
2024/04/16 10:14:18;;;;;;;2.92;1.60;;;9.00;99.90;;;;;;5466684;26;20027;-52
2024/04/16 10:16:44;;;;;;;3.95;1.23;;;9.00;99.90;;;;;;5440907;26;20022;-52
2024/04/16 10:19:09;;;;;;;3.92;1.30;;;9.00;99.90;;;;;;5472700;26;20514;-53
2024/04/16 10:21:39;;;;;;;2.67;1.17;;;9.10;99.90;;;;;;5473157;26;19999;-49
2024/04/16 10:24:09;;;;;;;7.13;1.42;;;9.10;99.90;;;;;;5470663;26;20461;-51
2024/04/16 10:26:41;;;;;;;3.80;1.75;;;9.30;99.90;;;;;;5471148;26;20262;-52
2024/04/16 10:29:23;;;;;;;2.00;1.10;;;9.30;99.90;;;;;;5472900;26;20395;-53
2024/04/16 10:31:50;;;;;;;3.78;1.40;;;9.30;99.90;;;;;;5473132;26;20522;-51
2024/04/16 10:34:26;;;;;;;1.75;1.00;;;9.60;99.90;;;;;;5478104;26;20004;-54
2024/04/16 10:36:55;;;;;;;1.27;0.80;;;9.70;99.90;;;;;;5476362;26;19998;-50
2024/04/16 10:39:29;;;;;;;1.30;1.10;;;9.80;99.90;;;;;;5469894;26;20346;-49
2024/04/16 10:41:57;;;;;;;2.33;1.52;;;9.70;99.90;;;;;;5463149;26;22290;-51
2024/04/16 10:44:23;;;;;;;3.70;1.15;;;9.70;99.90;;;;;;5471492;26;20671;-50
2024/04/16 10:46:50;;;;;;;2.40;1.30;;;9.70;99.90;;;;;;5470972;26;20071;-50
2024/04/16 10:49:18;;;;;;;1.00;0.95;;;9.80;99.90;;;;;;5472919;26;20008;-50
2024/04/16 10:51:44;;;;;;;1.30;1.20;;;9.80;99.90;;;;;;5472455;26;20031;-51
2024/04/16 10:54:09;;;;;;;3.63;1.27;;;9.90;99.90;;;;;;5473602;26;19998;-50
2024/04/16 10:56:38;;;;;;;2.25;1.48;;;9.90;99.90;;;;;;5477639;26;20083;-50
2024/04/16 10:59:09;;;;;;;3.00;1.50;;;9.90;99.90;;;;;;5474280;26;19998;-49
2024/04/16 11:01:42;;;;;;;1.55;1.45;;;9.80;99.90;;;;;;5472835;26;19998;-53
2024/04/16 11:04:11;;;;;;;1.88;1.00;;;9.80;99.90;;;;;;5471936;26;20771;-48
2024/04/16 11:06:38;;;;;;;2.30;0.90;;;9.90;99.90;;;;;;5470945;26;19994;-50
2024/04/16 11:09:04;;;;;;;1.20;0.90;;;10.00;99.90;;;;;;5469093;26;19998;-52
2024/04/16 11:11:32;;;;;;;1.08;0.80;;;10.00;99.90;;;;;;5440717;26;20037;-50
2024/04/16 11:13:57;;;;;;;2.20;0.93;;;9.80;99.90;;;;;;5474248;26;20002;-50
2024/04/16 11:16:24;;;;;;;2.30;1.10;;;9.50;99.90;;;;;;5469250;26;19991;-49
2024/04/16 11:18:50;;;;;;;2.80;1.33;;;9.30;99.90;;;;;;5476029;26;20101;-49
2024/04/16 11:21:16;;;;;;;0.95;0.88;;;9.10;99.90;;;;;;5471404;26;19990;-53
2024/04/16 11:23:41;;;;;;;1.35;1.02;;;9.10;99.90;;;;;;5471069;26;20009;-49
2024/04/16 11:26:08;;;;;;;2.17;1.60;;;9.10;99.90;;;;;;5471096;26;20183;-48
2024/04/16 11:28:33;;;;;;;2.28;1.20;;;9.00;99.90;;;;;;5477969;26;20013;-50
2024/04/16 11:31:01;;;;;;;1.35;1.25;;;9.00;99.90;;;;;;5470507;26;20022;-49
2024/04/16 11:33:27;;;;;;;1.58;1.20;;;9.00;99.90;;;;;;5474600;26;20012;-50
2024/04/16 11:35:52;;;;;;;1.92;1.20;;;9.10;99.90;;;;;;5477617;26;20667;-51
2024/04/16 11:38:20;;;;;;;1.30;1.17;;;9.10;99.90;;;;;;5472801;26;20010;-50
2024/04/16 11:40:46;;;;;;;4.50;1.40;;;9.30;99.90;;;;;;5470559;26;20038;-51
2024/04/16 11:43:13;;;;;;;1.40;1.15;;;9.20;99.90;;;;;;5469161;26;20360;-49
2024/04/16 11:45:40;;;;;;;2.90;1.55;;;9.20;99.90;;;;;;5477010;26;20022;-51
2024/04/16 11:48:06;;;;;;;3.47;1.35;;;9.20;99.90;;;;;;5471284;26;19998;-51
2024/04/16 11:50:32;;;;;;;1.58;1.42;;;9.10;99.90;;;;;;5470676;26;20017;-50
2024/04/16 11:52:57;;;;;;;1.30;1.20;;;9.10;99.90;;;;;;5473616;26;20009;-50
2024/04/16 11:55:23;;;;;;;1.92;1.80;;;9.10;99.90;;;;;;5473444;26;20014;-50
2024/04/16 11:57:48;;;;;;;3.30;2.05;;;9.00;99.90;;;;;;5419803;26;20077;-53
2024/04/16 12:00:14;;;;;;;2.08;1.50;;;8.90;99.90;;;;;;5438795;26;20013;-52
2024/04/16 12:02:40;;;;;;;2.95;1.42;;;9.00;99.90;;;;;;5472664;26;20002;-50
2024/04/16 12:05:05;;;;;;;1.73;1.52;;;9.10;99.90;;;;;;5465031;26;20006;-48
2024/04/16 12:07:31;;;;;;;5.78;1.63;;;9.30;99.90;;;;;;5473662;26;19994;-49
2024/04/16 12:09:56;;;;;;;2.35;1.70;;;9.30;99.90;;;;;;5468788;26;20096;-49
2024/04/16 12:12:22;;;;;;;3.10;1.60;;;9.40;99.90;;;;;;5470366;26;20061;-49
2024/04/16 12:14:48;;;;;;;2.10;1.70;;;9.30;99.90;;;;;;5477855;26;20465;-50
2024/04/16 12:17:13;;;;;;;2.10;1.15;;;9.20;99.90;;;;;;5472984;26;19994;-50
2024/04/16 12:19:39;;;;;;;6.00;1.45;;;9.10;99.90;;;;;;5469883;26;20253;-53
2024/04/16 12:22:04;;;;;;;4.32;1.30;;;9.00;99.90;;;;;;5437580;26;19998;-49
2024/04/16 12:24:30;;;;;;;2.33;1.25;;;9.00;99.90;;;;;;5470493;26;20021;-51
2024/04/16 12:26:55;;;;;;;1.00;1.00;;;9.10;99.90;;;;;;5444727;26;19990;-51
2024/04/16 12:29:21;;;;;;;3.10;2.10;;;9.10;99.90;;;;;;5472222;26;20483;-49
2024/04/16 12:31:46;;;;;;;3.50;1.30;;;9.10;99.90;;;;;;5469938;26;20049;-47
2024/04/16 12:34:12;;;;;;;2.25;1.30;;;9.30;99.90;;;;;;5473541;26;20461;-48
2024/04/16 12:36:37;;;;;;;1.38;1.00;;;9.50;99.90;;;;;;5468512;26;20039;-50
2024/04/16 12:39:03;;;;;;;1.75;1.00;;;9.50;99.90;;;;;;5472011;26;19998;-49
2024/04/16 12:41:29;;;;;;;4.30;1.98;;;9.40;99.90;;;;;;5469883;26;19994;-49
2024/04/16 12:43:54;;;;;;;0.68;0.63;;;9.30;99.90;;;;;;5476388;26;20458;-49
2024/04/16 12:46:20;;;;;;;0.50;0.50;;;9.10;99.90;;;;;;5468360;26;20054;-51
2024/04/16 12:48:45;;;;;;;0.68;0.40;;;8.90;99.90;;;;;;5469513;26;20006;-52
2024/04/16 12:51:11;;;;;;;0.57;0.50;;;8.70;99.90;;;;;;5474805;26;20042;-51